Terminal Aerodrome Forecast
Issued by NWS Albany, NY

Home | Current Version | Previous Version | Text Only | Print | Product List | Glossary On
Versions: 1 2 3 4 5 6 7 8 9 10 11 12 13 14 15 16 17 18 19 20 21 22 23 24 25 26
000
FTUS41 KALY 071721
TAFGFL
TAF
KGFL 071721Z 0718/0818 19008KT P6SM VCSH SCT020 BKN050
      TEMPO 0718/0722 3SM SHRA BR BKN020 OVC040
     FM080000 20004KT 6SM BR SCT060
     FM080600 22006KT 4SM BR VCSH SCT025 BKN040
     FM081300 01008KT 5SM BR VCSH FEW008 BKN015
     FM081500 04007KT P6SM SCT035 BKN200=

USA.gov is the U.S. government's official web portal to all federal, state and local government web resources and services.